sensor_id;sensor_type;location;lat;lon;timestamp;pressure;altitude;pressure_sealevel;temperature;humidity
32181;BME280;19172;51.504;3.894;2022-12-05T00:01:42;101743.34;;;8.77;85.25
32181;BME280;19172;51.504;3.894;2022-12-05T00:04:12;101738.72;;;8.69;85.11
32181;BME280;19172;51.504;3.894;2022-12-05T00:06:41;101742.91;;;7.93;84.67
32181;BME280;19172;51.504;3.894;2022-12-05T00:09:11;101744.97;;;7.74;85.74
32181;BME280;19172;51.504;3.894;2022-12-05T00:11:41;101740.75;;;8.12;87.41
32181;BME280;19172;51.504;3.894;2022-12-05T00:14:10;101742.56;;;8.14;88.09
32181;BME280;19172;51.504;3.894;2022-12-05T00:16:40;101738.25;;;8.16;88.10
32181;BME280;19172;51.504;3.894;2022-12-05T00:19:12;101742.53;;;8.13;87.32
32181;BME280;19172;51.504;3.894;2022-12-05T00:21:41;101734.22;;;8.65;87.99
32181;BME280;19172;51.504;3.894;2022-12-05T00:24:12;101742.84;;;7.31;86.53
32181;BME280;19172;51.504;3.894;2022-12-05T00:26:41;101741.13;;;8.25;88.84
32181;BME280;19172;51.504;3.894;2022-12-05T00:29:10;101742.75;;;8.89;89.22
32181;BME280;19172;51.504;3.894;2022-12-05T00:31:39;101730.59;;;8.95;88.15
32181;BME280;19172;51.504;3.894;2022-12-05T00:34:07;101737.22;;;9.16;86.59
32181;BME280;19172;51.504;3.894;2022-12-05T00:36:35;101739.81;;;9.14;85.44
32181;BME280;19172;51.504;3.894;2022-12-05T00:39:06;101749.38;;;9.09;85.27
32181;BME280;19172;51.504;3.894;2022-12-05T00:41:35;101747.16;;;8.90;84.86
32181;BME280;19172;51.504;3.894;2022-12-05T00:44:04;101753.00;;;9.14;85.17
32181;BME280;19172;51.504;3.894;2022-12-05T00:46:33;101749.41;;;8.75;84.18
32181;BME280;19172;51.504;3.894;2022-12-05T00:49:03;101744.69;;;8.62;85.41
32181;BME280;19172;51.504;3.894;2022-12-05T00:51:37;101742.63;;;8.48;85.85
32181;BME280;19172;51.504;3.894;2022-12-05T00:54:10;101746.59;;;8.31;87.53
32181;BME280;19172;51.504;3.894;2022-12-05T00:56:38;101742.19;;;9.03;88.01
32181;BME280;19172;51.504;3.894;2022-12-05T00:59:07;101747.25;;;8.94;87.73
32181;BME280;19172;51.504;3.894;2022-12-05T01:01:38;101740.78;;;8.46;87.75
32181;BME280;19172;51.504;3.894;2022-12-05T01:04:14;101737.41;;;8.86;88.83
32181;BME280;19172;51.504;3.894;2022-12-05T01:06:42;101740.72;;;8.77;88.32
32181;BME280;19172;51.504;3.894;2022-12-05T01:09:12;101739.06;;;8.82;88.93
32181;BME280;19172;51.504;3.894;2022-12-05T01:11:41;101743.47;;;9.21;88.36
32181;BME280;19172;51.504;3.894;2022-12-05T01:14:12;101734.84;;;9.29;88.43
32181;BME280;19172;51.504;3.894;2022-12-05T01:16:43;101737.00;;;9.47;87.00
32181;BME280;19172;51.504;3.894;2022-12-05T01:19:16;101737.00;;;9.47;87.39
32181;BME280;19172;51.504;3.894;2022-12-05T01:21:44;101742.38;;;9.51;86.77
32181;BME280;19172;51.504;3.894;2022-12-05T01:24:15;101754.03;;;8.83;86.82
32181;BME280;19172;51.504;3.894;2022-12-05T01:26:44;101747.81;;;8.81;87.87
32181;BME280;19172;51.504;3.894;2022-12-05T01:29:14;101746.63;;;9.04;88.67
32181;BME280;19172;51.504;3.894;2022-12-05T01:31:43;101745.47;;;8.93;89.49
32181;BME280;19172;51.504;3.894;2022-12-05T01:34:13;101748.25;;;9.38;90.68
32181;BME280;19172;51.504;3.894;2022-12-05T01:36:42;101750.53;;;9.62;90.54
32181;BME280;19172;51.504;3.894;2022-12-05T01:39:11;101754.78;;;9.15;89.45
32181;BME280;19172;51.504;3.894;2022-12-05T01:41:43;101750.03;;;9.38;88.75
32181;BME280;19172;51.504;3.894;2022-12-05T01:46:45;101756.88;;;9.30;87.96
32181;BME280;19172;51.504;3.894;2022-12-05T01:49:37;101756.41;;;9.10;89.41
32181;BME280;19172;51.504;3.894;2022-12-05T01:52:17;101757.22;;;9.06;90.53
32181;BME280;19172;51.504;3.894;2022-12-05T01:54:49;101753.47;;;9.35;90.60
32181;BME280;19172;51.504;3.894;2022-12-05T01:57:21;101756.94;;;9.33;90.67
32181;BME280;19172;51.504;3.894;2022-12-05T01:59:56;101760.47;;;9.33;91.08
32181;BME280;19172;51.504;3.894;2022-12-05T02:02:27;101757.25;;;9.46;91.54
32181;BME280;19172;51.504;3.894;2022-12-05T02:07:27;101757.84;;;8.60;90.13
32181;BME280;19172;51.504;3.894;2022-12-05T02:09:55;101765.56;;;8.87;91.22
32181;BME280;19172;51.504;3.894;2022-12-05T02:12:23;101774.94;;;8.76;92.16
32181;BME280;19172;51.504;3.894;2022-12-05T02:29:29;101756.00;;;9.31;93.57
32181;BME280;19172;51.504;3.894;2022-12-05T02:32:19;101751.00;;;9.43;93.97
32181;BME280;19172;51.504;3.894;2022-12-05T02:40:34;101754.19;;;9.69;93.19
32181;BME280;19172;51.504;3.894;2022-12-05T02:45:47;101753.28;;;9.67;92.98
32181;BME280;19172;51.504;3.894;2022-12-05T02:48:17;101746.47;;;9.37;92.81
32181;BME280;19172;51.504;3.894;2022-12-05T02:50:48;101753.19;;;9.23;93.04
32181;BME280;19172;51.504;3.894;2022-12-05T02:53:20;101748.38;;;8.68;93.97
32181;BME280;19172;51.504;3.894;2022-12-05T02:55:51;101757.09;;;9.01;95.16
32181;BME280;19172;51.504;3.894;2022-12-05T02:58:24;101755.94;;;8.89;96.32
32181;BME280;19172;51.504;3.894;2022-12-05T03:00:55;101752.78;;;8.68;97.34
32181;BME280;19172;51.504;3.894;2022-12-05T03:03:25;101754.47;;;8.66;98.51
32181;BME280;19172;51.504;3.894;2022-12-05T03:06:33;101757.31;;;8.73;100.00
32181;BME280;19172;51.504;3.894;2022-12-05T03:09:11;101760.34;;;8.90;100.00
32181;BME280;19172;51.504;3.894;2022-12-05T03:11:48;101760.63;;;9.02;100.00
32181;BME280;19172;51.504;3.894;2022-12-05T03:14:28;101759.56;;;9.33;100.00
32181;BME280;19172;51.504;3.894;2022-12-05T03:17:03;101761.88;;;9.58;100.00
32181;BME280;19172;51.504;3.894;2022-12-05T03:19:54;101763.94;;;8.58;100.00
32181;BME280;19172;51.504;3.894;2022-12-05T03:22:34;101764.41;;;9.13;100.00
32181;BME280;19172;51.504;3.894;2022-12-05T03:25:04;101762.22;;;8.58;100.00
32181;BME280;19172;51.504;3.894;2022-12-05T03:27:45;101765.94;;;8.33;100.00
32181;BME280;19172;51.504;3.894;2022-12-05T03:30:20;101756.56;;;8.79;100.00
32181;BME280;19172;51.504;3.894;2022-12-05T03:35:58;101756.06;;;8.95;100.00
32181;BME280;19172;51.504;3.894;2022-12-05T03:44:11;101755.69;;;9.17;100.00
32181;BME280;19172;51.504;3.894;2022-12-05T03:46:55;101756.28;;;9.43;100.00
32181;BME280;19172;51.504;3.894;2022-12-05T03:49:35;101757.41;;;9.55;100.00
32181;BME280;19172;51.504;3.894;2022-12-05T03:52:11;101765.88;;;9.39;100.00
32181;BME280;19172;51.504;3.894;2022-12-05T03:54:45;101756.22;;;9.41;100.00
32181;BME280;19172;51.504;3.894;2022-12-05T03:57:28;101766.25;;;9.57;100.00
32181;BME280;19172;51.504;3.894;2022-12-05T04:00:05;101764.00;;;9.34;100.00
32181;BME280;19172;51.504;3.894;2022-12-05T04:07:57;101763.06;;;10.16;100.00
32181;BME280;19172;51.504;3.894;2022-12-05T04:10:30;101764.25;;;9.88;99.96
32181;BME280;19172;51.504;3.894;2022-12-05T04:13:02;101764.97;;;9.81;99.69
32181;BME280;19172;51.504;3.894;2022-12-05T04:15:50;101766.97;;;9.10;99.80
32181;BME280;19172;51.504;3.894;2022-12-05T04:18:46;101768.50;;;9.39;100.00
32181;BME280;19172;51.504;3.894;2022-12-05T04:21:19;101759.47;;;9.69;100.00
32181;BME280;19172;51.504;3.894;2022-12-05T04:24:14;101768.19;;;8.87;100.00
32181;BME280;19172;51.504;3.894;2022-12-05T04:27:27;101765.53;;;9.24;100.00
32181;BME280;19172;51.504;3.894;2022-12-05T04:30:23;101770.25;;;9.00;100.00
32181;BME280;19172;51.504;3.894;2022-12-05T04:33:05;101761.88;;;9.18;100.00
32181;BME280;19172;51.504;3.894;2022-12-05T04:35:42;101771.53;;;9.17;100.00
32181;BME280;19172;51.504;3.894;2022-12-05T04:38:17;101766.69;;;8.98;100.00
32181;BME280;19172;51.504;3.894;2022-12-05T04:41:01;101768.75;;;9.11;100.00
32181;BME280;19172;51.504;3.894;2022-12-05T04:43:36;101769.81;;;8.82;100.00
32181;BME280;19172;51.504;3.894;2022-12-05T04:46:10;101766.81;;;9.02;100.00
32181;BME280;19172;51.504;3.894;2022-12-05T04:48:43;101767.75;;;9.45;100.00
32181;BME280;19172;51.504;3.894;2022-12-05T04:51:19;101773.53;;;9.29;100.00
32181;BME280;19172;51.504;3.894;2022-12-05T04:53:55;101771.66;;;9.22;100.00
32181;BME280;19172;51.504;3.894;2022-12-05T04:56:28;101776.88;;;9.19;100.00
32181;BME280;19172;51.504;3.894;2022-12-05T04:58:56;101785.00;;;8.92;100.00
32181;BME280;19172;51.504;3.894;2022-12-05T05:01:34;101774.75;;;9.43;100.00
32181;BME280;19172;51.504;3.894;2022-12-05T05:04:16;101782.59;;;9.01;100.00
32181;BME280;19172;51.504;3.894;2022-12-05T05:06:46;101776.19;;;9.69;100.00
32181;BME280;19172;51.504;3.894;2022-12-05T05:09:14;101780.78;;;9.78;100.00
32181;BME280;19172;51.504;3.894;2022-12-05T05:11:42;101780.88;;;9.03;100.00
32181;BME280;19172;51.504;3.894;2022-12-05T05:14:09;101779.50;;;10.01;100.00
32181;BME280;19172;51.504;3.894;2022-12-05T05:16:39;101779.06;;;10.23;100.00
32181;BME280;19172;51.504;3.894;2022-12-05T05:19:10;101790.19;;;10.07;100.00
32181;BME280;19172;51.504;3.894;2022-12-05T05:21:40;101779.63;;;10.08;100.00
32181;BME280;19172;51.504;3.894;2022-12-05T05:24:09;101794.56;;;9.24;100.00
32181;BME280;19172;51.504;3.894;2022-12-05T05:26:41;101791.50;;;9.43;100.00
32181;BME280;19172;51.504;3.894;2022-12-05T05:29:10;101794.94;;;9.83;100.00
32181;BME280;19172;51.504;3.894;2022-12-05T05:31:40;101792.66;;;9.57;100.00
32181;BME280;19172;51.504;3.894;2022-12-05T05:34:09;101800.22;;;9.03;100.00
32181;BME280;19172;51.504;3.894;2022-12-05T05:36:38;101797.16;;;9.60;100.00
32181;BME280;19172;51.504;3.894;2022-12-05T05:39:12;101799.94;;;9.29;100.00
32181;BME280;19172;51.504;3.894;2022-12-05T05:41:41;101800.38;;;9.89;100.00
32181;BME280;19172;51.504;3.894;2022-12-05T05:44:09;101800.25;;;9.42;100.00
32181;BME280;19172;51.504;3.894;2022-12-05T05:46:38;101805.53;;;9.42;100.00
32181;BME280;19172;51.504;3.894;2022-12-05T05:49:06;101804.78;;;9.90;100.00
32181;BME280;19172;51.504;3.894;2022-12-05T05:51:33;101802.16;;;9.90;100.00
32181;BME280;19172;51.504;3.894;2022-12-05T05:54:02;101806.69;;;9.53;100.00
32181;BME280;19172;51.504;3.894;2022-12-05T05:56:30;101807.72;;;9.62;100.00
32181;BME280;19172;51.504;3.894;2022-12-05T05:59:02;101806.81;;;10.01;100.00
32181;BME280;19172;51.504;3.894;2022-12-05T06:01:30;101809.16;;;9.88;100.00
32181;BME280;19172;51.504;3.894;2022-12-05T06:03:58;101805.03;;;10.02;100.00
32181;BME280;19172;51.504;3.894;2022-12-05T06:06:26;101810.50;;;9.68;100.00
32181;BME280;19172;51.504;3.894;2022-12-05T06:08:54;101819.81;;;9.52;100.00
32181;BME280;19172;51.504;3.894;2022-12-05T06:11:24;101811.22;;;10.02;100.00
32181;BME280;19172;51.504;3.894;2022-12-05T06:13:55;101801.25;;;9.88;100.00
32181;BME280;19172;51.504;3.894;2022-12-05T06:16:23;101813.38;;;9.39;100.00
32181;BME280;19172;51.504;3.894;2022-12-05T06:18:52;101806.69;;;9.95;100.00
32181;BME280;19172;51.504;3.894;2022-12-05T06:21:21;101816.66;;;9.67;100.00
32181;BME280;19172;51.504;3.894;2022-12-05T06:23:50;101822.84;;;8.92;100.00
32181;BME280;19172;51.504;3.894;2022-12-05T06:26:20;101820.41;;;9.78;100.00
32181;BME280;19172;51.504;3.894;2022-12-05T06:28:48;101820.69;;;9.93;100.00
32181;BME280;19172;51.504;3.894;2022-12-05T06:31:19;101816.03;;;9.80;100.00
32181;BME280;19172;51.504;3.894;2022-12-05T06:33:47;101821.88;;;10.07;100.00
32181;BME280;19172;51.504;3.894;2022-12-05T06:36:17;101816.31;;;9.93;100.00
32181;BME280;19172;51.504;3.894;2022-12-05T06:38:47;101826.53;;;10.17;100.00
32181;BME280;19172;51.504;3.894;2022-12-05T06:41:17;101816.13;;;10.28;100.00
32181;BME280;19172;51.504;3.894;2022-12-05T06:43:46;101823.88;;;10.17;100.00
32181;BME280;19172;51.504;3.894;2022-12-05T06:46:14;101825.78;;;9.82;100.00
32181;BME280;19172;51.504;3.894;2022-12-05T06:48:42;101827.94;;;9.60;100.00
32181;BME280;19172;51.504;3.894;2022-12-05T06:51:13;101830.31;;;10.31;100.00
32181;BME280;19172;51.504;3.894;2022-12-05T06:53:42;101821.13;;;10.57;100.00
32181;BME280;19172;51.504;3.894;2022-12-05T06:56:13;101825.84;;;10.27;100.00
32181;BME280;19172;51.504;3.894;2022-12-05T06:58:43;101819.22;;;9.25;100.00
32181;BME280;19172;51.504;3.894;2022-12-05T07:01:13;101825.75;;;9.81;100.00
32181;BME280;19172;51.504;3.894;2022-12-05T07:04:00;101821.81;;;10.04;100.00
32181;BME280;19172;51.504;3.894;2022-12-05T07:06:28;101826.72;;;10.26;100.00
32181;BME280;19172;51.504;3.894;2022-12-05T07:08:56;101828.91;;;10.05;100.00
32181;BME280;19172;51.504;3.894;2022-12-05T07:11:24;101830.97;;;9.78;100.00
32181;BME280;19172;51.504;3.894;2022-12-05T07:13:52;101839.00;;;9.43;100.00
32181;BME280;19172;51.504;3.894;2022-12-05T07:16:20;101828.69;;;9.96;100.00
32181;BME280;19172;51.504;3.894;2022-12-05T07:18:48;101836.69;;;9.99;100.00
32181;BME280;19172;51.504;3.894;2022-12-05T07:21:16;101846.38;;;9.98;100.00
32181;BME280;19172;51.504;3.894;2022-12-05T07:23:45;101836.22;;;10.17;100.00
32181;BME280;19172;51.504;3.894;2022-12-05T07:26:16;101848.75;;;9.86;100.00
32181;BME280;19172;51.504;3.894;2022-12-05T07:28:45;101852.75;;;9.68;100.00
32181;BME280;19172;51.504;3.894;2022-12-05T07:31:16;101844.09;;;10.15;100.00
32181;BME280;19172;51.504;3.894;2022-12-05T07:33:45;101849.16;;;10.48;100.00
32181;BME280;19172;51.504;3.894;2022-12-05T07:36:18;101852.47;;;9.96;100.00
32181;BME280;19172;51.504;3.894;2022-12-05T07:38:47;101858.44;;;9.86;100.00
32181;BME280;19172;51.504;3.894;2022-12-05T07:41:26;101849.06;;;9.60;100.00
32181;BME280;19172;51.504;3.894;2022-12-05T07:43:57;101856.06;;;9.99;100.00
32181;BME280;19172;51.504;3.894;2022-12-05T07:46:26;101860.75;;;10.11;100.00
32181;BME280;19172;51.504;3.894;2022-12-05T07:48:55;101866.75;;;10.47;100.00
32181;BME280;19172;51.504;3.894;2022-12-05T07:51:23;101864.34;;;10.59;100.00
32181;BME280;19172;51.504;3.894;2022-12-05T07:53:50;101870.34;;;10.49;100.00
32181;BME280;19172;51.504;3.894;2022-12-05T07:56:19;101872.66;;;10.33;100.00
32181;BME280;19172;51.504;3.894;2022-12-05T07:58:49;101875.22;;;9.89;100.00
32181;BME280;19172;51.504;3.894;2022-12-05T08:01:22;101878.81;;;9.52;100.00
32181;BME280;19172;51.504;3.894;2022-12-05T08:03:53;101878.94;;;9.58;100.00
32181;BME280;19172;51.504;3.894;2022-12-05T08:06:26;101877.63;;;10.62;100.00
32181;BME280;19172;51.504;3.894;2022-12-05T08:08:55;101878.44;;;10.15;100.00
32181;BME280;19172;51.504;3.894;2022-12-05T08:11:26;101878.78;;;10.30;100.00
32181;BME280;19172;51.504;3.894;2022-12-05T08:13:55;101886.22;;;10.49;100.00
32181;BME280;19172;51.504;3.894;2022-12-05T08:16:26;101887.22;;;10.56;100.00
32181;BME280;19172;51.504;3.894;2022-12-05T08:19:03;101897.59;;;10.05;100.00
32181;BME280;19172;51.504;3.894;2022-12-05T08:21:32;101895.84;;;10.46;100.00
32181;BME280;19172;51.504;3.894;2022-12-05T08:24:04;101896.41;;;10.31;100.00
32181;BME280;19172;51.504;3.894;2022-12-05T08:26:34;101901.69;;;9.91;100.00
32181;BME280;19172;51.504;3.894;2022-12-05T08:29:08;101899.09;;;10.34;100.00
32181;BME280;19172;51.504;3.894;2022-12-05T08:31:43;101900.59;;;10.20;100.00
32181;BME280;19172;51.504;3.894;2022-12-05T08:34:15;101903.28;;;10.67;100.00
32181;BME280;19172;51.504;3.894;2022-12-05T08:36:44;101909.31;;;11.07;100.00
32181;BME280;19172;51.504;3.894;2022-12-05T08:39:15;101908.44;;;10.59;100.00
32181;BME280;19172;51.504;3.894;2022-12-05T08:41:45;101916.56;;;10.70;100.00
32181;BME280;19172;51.504;3.894;2022-12-05T08:44:14;101904.25;;;11.21;100.00
32181;BME280;19172;51.504;3.894;2022-12-05T08:46:47;101906.69;;;11.09;100.00
32181;BME280;19172;51.504;3.894;2022-12-05T08:49:17;101902.41;;;11.15;100.00
32181;BME280;19172;51.504;3.894;2022-12-05T08:51:45;101900.75;;;11.22;100.00
32181;BME280;19172;51.504;3.894;2022-12-05T08:54:14;101904.19;;;11.71;100.00
32181;BME280;19172;51.504;3.894;2022-12-05T08:56:42;101904.66;;;11.47;99.04
32181;BME280;19172;51.504;3.894;2022-12-05T08:59:10;101904.66;;;11.47;97.33
32181;BME280;19172;51.504;3.894;2022-12-05T09:01:37;101912.06;;;11.67;97.88
32181;BME280;19172;51.504;3.894;2022-12-05T09:04:07;101906.31;;;11.39;96.14
32181;BME280;19172;51.504;3.894;2022-12-05T09:06:35;101916.19;;;11.50;96.43
32181;BME280;19172;51.504;3.894;2022-12-05T09:09:06;101911.03;;;11.59;97.16
32181;BME280;19172;51.504;3.894;2022-12-05T09:11:38;101919.41;;;11.85;97.60
32181;BME280;19172;51.504;3.894;2022-12-05T09:14:13;101918.13;;;11.60;96.54
32181;BME280;19172;51.504;3.894;2022-12-05T09:16:43;101926.94;;;11.59;95.69
32181;BME280;19172;51.504;3.894;2022-12-05T09:19:16;101929.19;;;11.91;96.66
32181;BME280;19172;51.504;3.894;2022-12-05T09:21:44;101923.91;;;11.89;95.27
32181;BME280;19172;51.504;3.894;2022-12-05T09:24:13;101931.44;;;11.63;94.83
32181;BME280;19172;51.504;3.894;2022-12-05T09:26:40;101926.41;;;11.80;95.13
32181;BME280;19172;51.504;3.894;2022-12-05T09:29:09;101925.81;;;12.01;94.55
32181;BME280;19172;51.504;3.894;2022-12-05T09:31:44;101935.44;;;11.94;94.52
32181;BME280;19172;51.504;3.894;2022-12-05T09:34:13;101935.44;;;11.94;94.89
32181;BME280;19172;51.504;3.894;2022-12-05T09:36:42;101930.34;;;12.08;94.18
32181;BME280;19172;51.504;3.894;2022-12-05T09:39:10;101936.22;;;12.53;94.12
32181;BME280;19172;51.504;3.894;2022-12-05T09:56:01;101936.69;;;12.22;91.85
32181;BME280;19172;51.504;3.894;2022-12-05T10:03:41;101933.63;;;11.92;91.32
32181;BME280;19172;51.504;3.894;2022-12-05T10:09:26;101940.50;;;12.42;93.14
32181;BME280;19172;51.504;3.894;2022-12-05T10:12:09;101940.97;;;12.12;94.04
32181;BME280;19172;51.504;3.894;2022-12-05T10:17:22;101935.72;;;12.14;95.51
32181;BME280;19172;51.504;3.894;2022-12-05T10:19:58;101941.97;;;12.19;94.98
32181;BME280;19172;51.504;3.894;2022-12-05T10:22:51;101931.00;;;11.92;93.86
32181;BME280;19172;51.504;3.894;2022-12-05T10:25:25;101931.50;;;12.28;95.61
32181;BME280;19172;51.504;3.894;2022-12-05T10:28:00;101931.56;;;11.71;95.10
32181;BME280;19172;51.504;3.894;2022-12-05T10:30:32;101936.50;;;12.05;97.21
32181;BME280;19172;51.504;3.894;2022-12-05T10:33:13;101937.97;;;11.84;96.16
32181;BME280;19172;51.504;3.894;2022-12-05T10:35:42;101930.22;;;12.00;98.19
32181;BME280;19172;51.504;3.894;2022-12-05T10:38:23;101933.22;;;11.66;98.73
32181;BME280;19172;51.504;3.894;2022-12-05T10:40:58;101936.81;;;11.69;98.65
32181;BME280;19172;51.504;3.894;2022-12-05T10:43:29;101932.53;;;11.78;98.30
32181;BME280;19172;51.504;3.894;2022-12-05T10:46:00;101932.94;;;11.49;98.97
32181;BME280;19172;51.504;3.894;2022-12-05T10:48:29;101932.75;;;11.36;100.00
32181;BME280;19172;51.504;3.894;2022-12-05T10:51:01;101934.50;;;11.89;100.00
32181;BME280;19172;51.504;3.894;2022-12-05T10:56:37;101932.09;;;11.50;100.00
32181;BME280;19172;51.504;3.894;2022-12-05T10:59:08;101938.09;;;11.94;100.00
32181;BME280;19172;51.504;3.894;2022-12-05T11:01:37;101934.09;;;12.25;100.00
32181;BME280;19172;51.504;3.894;2022-12-05T11:05:02;101927.56;;;11.43;100.00
32181;BME280;19172;51.504;3.894;2022-12-05T11:07:33;101934.06;;;11.63;100.00
32181;BME280;19172;51.504;3.894;2022-12-05T11:12:50;101926.97;;;11.61;100.00
32181;BME280;19172;51.504;3.894;2022-12-05T11:15:24;101930.06;;;11.87;100.00
32181;BME280;19172;51.504;3.894;2022-12-05T11:17:56;101928.25;;;11.87;100.00
32181;BME280;19172;51.504;3.894;2022-12-05T11:22:54;101927.28;;;11.27;100.00
32181;BME280;19172;51.504;3.894;2022-12-05T11:27:51;101929.72;;;11.67;100.00
32181;BME280;19172;51.504;3.894;2022-12-05T11:30:22;101927.44;;;11.90;100.00
32181;BME280;19172;51.504;3.894;2022-12-05T11:33:19;101928.50;;;11.47;100.00
32181;BME280;19172;51.504;3.894;2022-12-05T11:35:50;101923.47;;;11.65;100.00
32181;BME280;19172;51.504;3.894;2022-12-05T11:38:23;101926.81;;;11.01;100.00
32181;BME280;19172;51.504;3.894;2022-12-05T11:41:01;101930.91;;;11.87;100.00
32181;BME280;19172;51.504;3.894;2022-12-05T11:55:15;101937.06;;;11.83;100.00
32181;BME280;19172;51.504;3.894;2022-12-05T12:00:51;101934.22;;;11.19;100.00
32181;BME280;19172;51.504;3.894;2022-12-05T12:09:11;101936.59;;;11.56;100.00
32181;BME280;19172;51.504;3.894;2022-12-05T12:18:12;101935.44;;;11.39;100.00
32181;BME280;19172;51.504;3.894;2022-12-05T12:21:02;101935.16;;;11.22;100.00
32181;BME280;19172;51.504;3.894;2022-12-05T12:23:58;101938.16;;;11.43;100.00
32181;BME280;19172;51.504;3.894;2022-12-05T12:29:39;101944.63;;;11.60;100.00
32181;BME280;19172;51.504;3.894;2022-12-05T12:40:21;101936.38;;;11.96;100.00
32181;BME280;19172;51.504;3.894;2022-12-05T12:45:47;101931.16;;;12.04;100.00
32181;BME280;19172;51.504;3.894;2022-12-05T12:51:25;101927.75;;;12.14;100.00
32181;BME280;19172;51.504;3.894;2022-12-05T12:54:19;101920.97;;;11.19;100.00
32181;BME280;19172;51.504;3.894;2022-12-05T13:00:11;101925.94;;;11.51;100.00
32181;BME280;19172;51.504;3.894;2022-12-05T13:03:02;101924.25;;;12.16;100.00
32181;BME280;19172;51.504;3.894;2022-12-05T13:05:40;101918.91;;;12.12;100.00
32181;BME280;19172;51.504;3.894;2022-12-05T13:10:43;101920.06;;;12.35;100.00
32181;BME280;19172;51.504;3.894;2022-12-05T13:13:16;101914.75;;;12.34;100.00
32181;BME280;19172;51.504;3.894;2022-12-05T13:15:58;101923.16;;;11.99;100.00
32181;BME280;19172;51.504;3.894;2022-12-05T13:18:27;101918.97;;;12.19;100.00
32181;BME280;19172;51.504;3.894;2022-12-05T13:20:57;101921.97;;;11.81;100.00
32181;BME280;19172;51.504;3.894;2022-12-05T13:23:30;101927.59;;;12.02;100.00
32181;BME280;19172;51.504;3.894;2022-12-05T13:26:01;101932.66;;;11.85;100.00
32181;BME280;19172;51.504;3.894;2022-12-05T13:28:50;101930.47;;;11.61;100.00
32181;BME280;19172;51.504;3.894;2022-12-05T13:34:04;101928.88;;;11.69;100.00
32181;BME280;19172;51.504;3.894;2022-12-05T13:36:40;101931.59;;;11.73;100.00
32181;BME280;19172;51.504;3.894;2022-12-05T13:39:26;101923.59;;;11.71;100.00
32181;BME280;19172;51.504;3.894;2022-12-05T13:42:26;101925.72;;;11.95;100.00
32181;BME280;19172;51.504;3.894;2022-12-05T13:45:07;101934.66;;;12.01;100.00
32181;BME280;19172;51.504;3.894;2022-12-05T13:50:34;101933.22;;;12.26;100.00
32181;BME280;19172;51.504;3.894;2022-12-05T13:58:58;101930.53;;;12.22;100.00
32181;BME280;19172;51.504;3.894;2022-12-05T14:03:57;101937.84;;;11.78;100.00
32181;BME280;19172;51.504;3.894;2022-12-05T14:17:29;101950.31;;;11.85;100.00
32181;BME280;19172;51.504;3.894;2022-12-05T14:20:18;101949.41;;;11.29;100.00
32181;BME280;19172;51.504;3.894;2022-12-05T14:29:16;101950.59;;;12.03;100.00
32181;BME280;19172;51.504;3.894;2022-12-05T14:35:28;101959.72;;;11.66;100.00
32181;BME280;19172;51.504;3.894;2022-12-05T14:38:02;101949.47;;;11.87;100.00
32181;BME280;19172;51.504;3.894;2022-12-05T14:40:40;101961.94;;;11.93;100.00
32181;BME280;19172;51.504;3.894;2022-12-05T14:48:38;101963.47;;;12.42;100.00
32181;BME280;19172;51.504;3.894;2022-12-05T14:54:06;101953.50;;;12.96;100.00
32181;BME280;19172;51.504;3.894;2022-12-05T14:56:45;101969.41;;;12.21;99.08
32181;BME280;19172;51.504;3.894;2022-12-05T14:59:31;101953.88;;;12.51;100.00
32181;BME280;19172;51.504;3.894;2022-12-05T15:02:04;101959.34;;;12.63;100.00
32181;BME280;19172;51.504;3.894;2022-12-05T15:04:41;101955.19;;;12.16;100.00
32181;BME280;19172;51.504;3.894;2022-12-05T15:07:19;101964.75;;;11.49;100.00
32181;BME280;19172;51.504;3.894;2022-12-05T15:10:01;101962.97;;;12.04;100.00
32181;BME280;19172;51.504;3.894;2022-12-05T15:12:46;101961.50;;;12.24;100.00
32181;BME280;19172;51.504;3.894;2022-12-05T15:15:29;101957.66;;;12.04;100.00
32181;BME280;19172;51.504;3.894;2022-12-05T15:18:08;101956.72;;;12.66;100.00
32181;BME280;19172;51.504;3.894;2022-12-05T15:23:46;101956.81;;;12.76;99.33
32181;BME280;19172;51.504;3.894;2022-12-05T15:26:18;101963.16;;;12.19;99.26
32181;BME280;19172;51.504;3.894;2022-12-05T15:29:28;101970.69;;;12.52;99.97
32181;BME280;19172;51.504;3.894;2022-12-05T15:34:41;101965.47;;;12.59;96.30
32181;BME280;19172;51.504;3.894;2022-12-05T15:50:14;101977.75;;;12.50;93.97
32181;BME280;19172;51.504;3.894;2022-12-05T15:55:25;101974.34;;;11.97;96.14
32181;BME280;19172;51.504;3.894;2022-12-05T15:58:03;101973.25;;;11.83;96.04
32181;BME280;19172;51.504;3.894;2022-12-05T16:00:45;101977.66;;;12.45;99.12
32181;BME280;19172;51.504;3.894;2022-12-05T16:03:25;101977.63;;;12.41;97.54
32181;BME280;19172;51.504;3.894;2022-12-05T16:05:54;101977.84;;;12.59;96.87
32181;BME280;19172;51.504;3.894;2022-12-05T16:08:25;101973.53;;;11.99;97.42
32181;BME280;19172;51.504;3.894;2022-12-05T16:10:56;101981.38;;;11.93;96.67
32181;BME280;19172;51.504;3.894;2022-12-05T16:13:25;101979.78;;;11.52;96.25
32181;BME280;19172;51.504;3.894;2022-12-05T16:15:54;101981.56;;;12.07;99.28
32181;BME280;19172;51.504;3.894;2022-12-05T16:18:28;101986.41;;;12.37;99.62
32181;BME280;19172;51.504;3.894;2022-12-05T16:20:57;101985.84;;;12.62;96.96
32181;BME280;19172;51.504;3.894;2022-12-05T16:23:31;101981.97;;;12.36;96.67
32181;BME280;19172;51.504;3.894;2022-12-05T16:26:18;101978.59;;;12.47;96.18
32181;BME280;19172;51.504;3.894;2022-12-05T16:29:01;101985.63;;;12.45;95.73
32181;BME280;19172;51.504;3.894;2022-12-05T16:31:31;101981.09;;;12.38;95.07
32181;BME280;19172;51.504;3.894;2022-12-05T16:36:32;101982.03;;;12.42;94.67